Time;durP1;ratioP1;P1;durP2;ratioP2;P2;SDS_P1;SDS_P2;PMS_P1;PMS_P2;Temp;Humidity;BMP_temperature;BMP_pressure;BME280_temperature;BME280_humidity;BME280_pressure;Samples;Min_cycle;Max_cycle;Signal;HPM_P1;HPM_P2
2024/02/09 00:00:40;;;;;;;1.67;1.00;;;;;;;1.88;100.00;98965.69;6297079;28;20067;-74
2024/02/09 00:03:43;;;;;;;1.90;0.90;;;;;;;1.86;100.00;98957.13;6301328;28;20174;-74
2024/02/09 00:06:45;;;;;;;1.67;1.02;;;;;;;1.97;100.00;98958.34;6300981;28;20118;-74
2024/02/09 00:09:47;;;;;;;2.42;1.00;;;;;;;1.89;100.00;98944.91;6300434;28;20048;-74
2024/02/09 00:12:50;;;;;;;1.00;0.90;;;;;;;1.97;100.00;98940.19;6300962;28;20060;-75
2024/02/09 00:15:53;;;;;;;0.80;0.80;;;;;;;2.01;100.00;98935.72;6300648;28;20067;-74
2024/02/09 00:18:54;;;;;;;0.75;0.60;;;;;;;1.95;100.00;98939.44;6300280;28;20061;-74
2024/02/09 00:21:57;;;;;;;1.40;0.75;;;;;;;1.93;100.00;98938.66;6301008;28;20429;-74
2024/02/09 00:24:58;;;;;;;1.25;1.05;;;;;;;1.96;100.00;98935.09;6300335;28;20059;-74
2024/02/09 00:28:00;;;;;;;1.33;0.70;;;;;;;2.00;100.00;98939.22;6299903;28;20344;-74
2024/02/09 00:31:01;;;;;;;1.05;0.88;;;;;;;2.00;100.00;98934.88;6300632;28;20507;-74
2024/02/09 00:34:02;;;;;;;1.15;0.70;;;;;;;1.90;100.00;98931.03;6300169;28;20056;-74
2024/02/09 00:37:06;;;;;;;0.68;0.65;;;;;;;1.99;100.00;98932.34;6300211;28;20055;-75
2024/02/09 00:40:08;;;;;;;0.73;0.73;;;;;;;2.05;100.00;98929.47;6300320;28;20056;-74
2024/02/09 00:43:13;;;;;;;1.00;0.70;;;;;;;1.97;100.00;98909.13;6300416;28;20060;-74
2024/02/09 00:46:15;;;;;;;0.57;0.57;;;;;;;1.90;100.00;98904.28;6300294;28;20425;-75
2024/02/09 00:49:18;;;;;;;1.05;0.77;;;;;;;1.99;100.00;98893.50;6299510;28;20131;-75
2024/02/09 00:52:21;;;;;;;0.98;0.55;;;;;;;1.92;100.00;98892.97;6300193;28;20098;-74
2024/02/09 00:55:22;;;;;;;1.48;0.70;;;;;;;1.95;100.00;98885.03;6300269;28;20052;-74
2024/02/09 00:58:24;;;;;;;0.75;0.57;;;;;;;2.12;100.00;98881.63;6299809;28;20044;-74
2024/02/09 01:01:25;;;;;;;0.70;0.70;;;;;;;2.13;100.00;98882.47;6300057;28;20045;-74
2024/02/09 01:04:27;;;;;;;0.63;0.63;;;;;;;2.09;100.00;98880.94;6299944;28;20080;-74
2024/02/09 01:07:30;;;;;;;1.02;0.73;;;;;;;2.02;100.00;98878.63;6299513;28;20452;-74
2024/02/09 01:10:32;;;;;;;0.68;0.55;;;;;;;2.07;100.00;98872.41;6299930;28;20052;-74
2024/02/09 02:46:28;;;;;;;0.88;0.88;;;;;;;2.23;100.00;98725.63;6253699;28;20480;-77
2024/02/09 03:06:14;;;;;;;0.80;0.80;;;;;;;2.16;100.00;98693.16;6252953;28;20049;-77
2024/02/09 03:09:15;;;;;;;1.27;0.90;;;;;;;2.31;100.00;98683.75;6253797;28;20054;-77
2024/02/09 03:12:17;;;;;;;1.08;0.80;;;;;;;2.23;100.00;98682.41;6301889;28;20440;-77
2024/02/09 03:15:18;;;;;;;1.17;0.90;;;;;;;2.35;100.00;98687.84;6302027;28;20044;-77
2024/02/09 03:18:23;;;;;;;1.55;1.20;;;;;;;2.35;100.00;98682.66;6301960;28;20098;-76
2024/02/09 03:21:25;;;;;;;2.03;1.40;;;;;;;2.24;100.00;98676.31;6302376;28;20053;-77
2024/02/09 03:24:27;;;;;;;1.83;1.20;;;;;;;2.39;100.00;98671.22;6301874;28;20098;-77
2024/02/09 03:27:30;;;;;;;2.97;1.23;;;;;;;2.35;100.00;98654.16;6301726;28;20044;-76
2024/02/09 03:30:32;;;;;;;1.05;0.93;;;;;;;2.31;100.00;98660.44;6302063;28;20049;-77
2024/02/09 03:33:34;;;;;;;1.85;1.15;;;;;;;2.28;100.00;98658.84;6301859;28;20178;-76
2024/02/09 03:36:36;;;;;;;1.67;1.27;;;;;;;2.16;100.00;98652.53;6301956;28;20048;-76
2024/02/09 03:39:38;;;;;;;1.75;1.50;;;;;;;2.24;100.00;98647.81;6301259;28;20059;-76
2024/02/09 03:42:41;;;;;;;1.98;1.65;;;;;;;2.28;100.00;98638.94;6300098;28;20048;-77
2024/02/09 03:45:42;;;;;;;1.45;1.20;;;;;;;2.34;100.00;98639.53;6312087;28;20051;-76
2024/02/09 03:48:45;;;;;;;1.92;1.50;;;;;;;2.42;100.00;98630.44;6314672;28;20328;-76
2024/02/09 03:51:46;;;;;;;1.33;1.08;;;;;;;2.39;100.00;98629.75;6318109;28;20044;-76
2024/02/09 03:54:50;;;;;;;1.40;1.02;;;;;;;2.40;100.00;98624.47;6310635;28;20052;-77
2024/02/09 03:57:51;;;;;;;2.45;1.40;;;;;;;2.34;100.00;98614.44;6314380;28;20048;-77
2024/02/09 04:00:52;;;;;;;1.98;1.33;;;;;;;2.40;100.00;98605.50;6326446;28;20043;-77
2024/02/09 04:03:55;;;;;;;1.13;1.02;;;;;;;2.35;100.00;98603.16;6288751;28;20061;-76
2024/02/09 04:06:58;;;;;;;2.15;1.67;;;;;;;2.27;100.00;98606.19;6276026;28;20041;-76
2024/02/09 04:10:02;;;;;;;1.83;1.13;;;;;;;2.27;100.00;98593.22;6289171;28;20127;-76
2024/02/09 04:13:05;;;;;;;1.08;0.90;;;;;;;2.24;100.00;98595.16;6300849;28;20059;-76
2024/02/09 04:16:08;;;;;;;1.55;1.38;;;;;;;2.35;100.00;98591.97;6301420;28;20056;-76
2024/02/09 04:19:10;;;;;;;1.77;1.27;;;;;;;2.34;100.00;98593.72;6300329;28;20049;-76
2024/02/09 04:22:12;;;;;;;1.73;1.38;;;;;;;2.11;100.00;98594.97;6300824;28;20048;-76
2024/02/09 04:25:13;;;;;;;2.33;1.50;;;;;;;2.31;100.00;98591.28;6300336;28;20048;-76
2024/02/09 04:28:17;;;;;;;1.73;1.30;;;;;;;2.39;100.00;98588.28;6300288;28;20040;-76
2024/02/09 04:31:18;;;;;;;2.28;1.92;;;;;;;2.13;100.00;98580.16;6300517;28;20436;-76
2024/02/09 04:34:21;;;;;;;2.00;1.23;;;;;;;2.12;100.00;98590.63;6300505;28;20056;-76
2024/02/09 04:37:22;;;;;;;1.48;1.27;;;;;;;2.14;100.00;98576.66;6300032;28;20051;-76
2024/02/09 04:40:25;;;;;;;2.80;1.70;;;;;;;2.26;100.00;98568.22;6300302;28;20360;-76
2024/02/09 04:43:26;;;;;;;1.83;1.20;;;;;;;2.41;100.00;98558.78;6300163;28;20056;-77
2024/02/09 04:46:29;;;;;;;3.30;1.60;;;;;;;2.33;100.00;98560.13;6300275;28;20056;-77
2024/02/09 04:49:31;;;;;;;2.85;1.63;;;;;;;2.29;100.00;98552.50;6300135;28;20440;-76
2024/02/09 04:52:35;;;;;;;2.50;1.33;;;;;;;2.32;100.00;98556.69;6300375;28;20045;-76
2024/02/09 04:55:36;;;;;;;1.98;1.52;;;;;;;2.23;100.00;98550.25;6300072;28;20052;-76
2024/02/09 04:58:38;;;;;;;2.22;1.67;;;;;;;2.31;100.00;98539.44;6299621;28;20361;-76
2024/02/09 05:01:41;;;;;;;2.33;1.55;;;;;;;2.35;100.00;98538.38;6300413;28;20052;-77
2024/02/09 05:04:47;;;;;;;2.13;1.42;;;;;;;2.41;100.00;98532.88;6299878;28;20326;-77
2024/02/09 05:07:48;;;;;;;2.60;1.75;;;;;;;2.42;100.00;98537.13;6299670;28;20048;-76
2024/02/09 05:10:49;;;;;;;4.13;1.55;;;;;;;2.39;100.00;98541.63;6299784;28;20048;-76
2024/02/09 05:13:51;;;;;;;2.28;1.27;;;;;;;2.47;100.00;98537.69;6299953;28;20471;-76
2024/02/09 05:16:53;;;;;;;2.63;1.33;;;;;;;2.43;100.00;98536.19;6299533;28;20047;-77
2024/02/09 05:19:59;;;;;;;1.70;1.25;;;;;;;2.42;100.00;98529.34;6300118;28;20056;-77
2024/02/09 05:23:01;;;;;;;1.95;1.30;;;;;;;2.41;100.00;98526.84;6300123;28;20074;-77
2024/02/09 05:26:02;;;;;;;2.22;1.30;;;;;;;2.57;100.00;98527.63;6299582;28;20048;-76
2024/02/09 05:29:04;;;;;;;2.00;1.48;;;;;;;2.59;100.00;98527.53;6299590;28;20052;-76
2024/02/09 05:32:05;;;;;;;2.22;1.35;;;;;;;2.58;100.00;98529.31;6299802;28;20052;-76
2024/02/09 05:35:09;;;;;;;2.13;1.30;;;;;;;2.68;100.00;98521.84;6299773;28;20468;-76
2024/02/09 05:38:11;;;;;;;3.08;1.48;;;;;;;2.68;100.00;98514.06;6303665;28;20041;-76
2024/02/09 05:41:13;;;;;;;2.13;1.60;;;;;;;2.62;100.00;98501.44;6304433;28;20360;-76
2024/02/09 05:44:14;;;;;;;2.70;1.60;;;;;;;2.58;100.00;98505.13;6310364;28;20454;-76
2024/02/09 05:47:15;;;;;;;2.45;1.48;;;;;;;2.62;100.00;98501.44;6309688;28;20432;-76
2024/02/09 05:50:20;;;;;;;2.70;1.60;;;;;;;2.70;100.00;98494.06;6329507;28;20044;-76
2024/02/09 05:53:22;;;;;;;2.13;1.42;;;;;;;2.65;100.00;98490.91;6324096;28;20051;-76
2024/02/09 05:56:25;;;;;;;1.60;1.25;;;;;;;2.60;100.00;98495.53;6322264;28;20051;-76
2024/02/09 05:59:27;;;;;;;3.38;1.75;;;;;;;2.57;100.00;98485.31;6329114;28;20051;-76
2024/02/09 06:02:30;;;;;;;2.70;1.75;;;;;;;2.58;100.00;98474.03;6329274;28;20356;-76
2024/02/09 06:05:33;;;;;;;2.28;1.73;;;;;;;2.58;100.00;98479.22;6309821;28;20060;-76
2024/02/09 06:08:35;;;;;;;2.85;1.70;;;;;;;2.70;100.00;98479.34;6314076;28;20044;-76
2024/02/09 06:11:38;;;;;;;4.28;1.92;;;;;;;2.49;100.00;98468.44;6319805;28;20050;-76
2024/02/09 06:14:39;;;;;;;3.20;1.73;;;;;;;2.67;100.00;98476.94;6320480;28;20321;-76
2024/02/09 06:17:41;;;;;;;1.85;1.67;;;;;;;2.76;100.00;98472.97;6328483;28;20044;-76
2024/02/09 06:20:44;;;;;;;2.75;1.58;;;;;;;2.78;100.00;98466.78;6328949;28;20047;-76
2024/02/09 06:23:46;;;;;;;4.45;2.17;;;;;;;2.77;100.00;98466.84;6328516;28;20055;-76
2024/02/09 06:26:47;;;;;;;3.42;2.00;;;;;;;2.73;100.00;98468.81;6328786;28;20052;-75
2024/02/09 06:29:49;;;;;;;4.15;1.98;;;;;;;2.65;100.00;98468.41;6328195;28;20048;-75
2024/02/09 06:32:51;;;;;;;4.22;2.03;;;;;;;2.64;100.00;98461.56;6312584;28;20062;-75
2024/02/09 06:35:55;;;;;;;5.00;2.38;;;;;;;2.71;100.00;98457.69;6302453;28;20044;-75
2024/02/09 06:38:56;;;;;;;4.43;2.13;;;;;;;2.82;100.00;98466.59;6302105;28;20063;-75
2024/02/09 06:41:57;;;;;;;3.85;1.77;;;;;;;2.83;100.00;98465.69;6302562;28;20352;-75
2024/02/09 06:44:59;;;;;;;4.13;2.45;;;;;;;2.89;100.00;98467.91;6302080;28;20055;-75
2024/02/09 06:48:00;;;;;;;3.45;2.20;;;;;;;2.79;100.00;98468.44;6300914;28;20048;-75
2024/02/09 06:51:07;;;;;;;2.80;1.77;;;;;;;2.88;100.00;98464.47;6302777;28;20056;-76
2024/02/09 06:54:09;;;;;;;3.85;2.10;;;;;;;2.96;100.00;98461.44;6302457;28;20364;-76
2024/02/09 06:57:10;;;;;;;4.55;2.10;;;;;;;2.92;100.00;98471.16;6302322;28;20052;-75
2024/02/09 07:00:14;;;;;;;4.47;2.15;;;;;;;2.95;100.00;98470.13;6302884;28;20168;-75
2024/02/09 07:03:17;;;;;;;4.68;2.28;;;;;;;3.00;100.00;98474.16;6302477;28;20048;-76
2024/02/09 07:06:22;;;;;;;5.13;2.35;;;;;;;3.00;100.00;98468.97;6302869;28;20048;-76
2024/02/09 07:09:25;;;;;;;4.60;2.33;;;;;;;3.00;100.00;98473.31;6301062;28;20040;-75
2024/02/09 07:12:27;;;;;;;4.38;2.03;;;;;;;2.99;100.00;98467.25;6302613;28;20052;-75
2024/02/09 07:15:29;;;;;;;4.35;2.13;;;;;;;3.03;100.00;98475.72;6301291;28;20451;-76
2024/02/09 07:18:31;;;;;;;3.67;1.98;;;;;;;3.10;100.00;98478.78;6300740;28;20040;-75
2024/02/09 07:21:33;;;;;;;5.03;2.28;;;;;;;3.09;100.00;98470.19;6309370;28;20368;-76
2024/02/09 07:24:35;;;;;;;3.45;2.10;;;;;;;3.01;100.00;98467.19;6306437;28;20049;-75
2024/02/09 07:27:36;;;;;;;5.75;2.70;;;;;;;3.12;100.00;98469.13;6303905;28;20067;-75
2024/02/09 07:30:38;;;;;;;3.78;2.20;;;;;;;3.13;100.00;98466.44;6300329;28;20051;-75
2024/02/09 07:33:39;;;;;;;4.93;2.40;;;;;;;3.05;100.00;98453.94;6309376;28;20071;-76
2024/02/09 07:36:42;;;;;;;4.38;2.53;;;;;;;3.07;100.00;98453.84;6301448;28;20054;-75
2024/02/09 07:39:43;;;;;;;4.40;2.28;;;;;;;3.05;100.00;98451.34;6300759;28;20047;-76
2024/02/09 07:42:45;;;;;;;3.25;2.28;;;;;;;3.04;100.00;98454.88;6300749;28;20459;-75
2024/02/09 07:45:47;;;;;;;4.80;2.03;;;;;;;3.10;100.00;98458.03;6301475;28;20047;-76
2024/02/09 07:48:49;;;;;;;6.07;2.42;;;;;;;3.16;100.00;98445.50;6309349;28;20045;-76
2024/02/09 07:51:52;;;;;;;4.90;2.80;;;;;;;3.30;100.00;98442.09;6296077;28;20052;-76
2024/02/09 07:54:53;;;;;;;4.35;2.47;;;;;;;3.22;100.00;98446.91;6311364;28;20052;-75
2024/02/09 07:57:55;;;;;;;6.88;2.45;;;;;;;3.24;100.00;98435.50;6309256;28;20043;-75
2024/02/09 08:00:57;;;;;;;4.00;2.42;;;;;;;3.24;100.00;98432.09;6317705;28;20097;-75
2024/02/09 08:03:58;;;;;;;3.35;2.00;;;;;;;3.34;100.00;98427.16;6326089;28;20044;-75
2024/02/09 08:07:02;;;;;;;4.28;2.65;;;;;;;3.35;100.00;98426.22;6320116;28;20067;-75
2024/02/09 08:10:04;;;;;;;4.78;2.58;;;;;;;3.41;100.00;98431.06;6320124;22;20417;-77
2024/02/09 08:13:05;;;;;;;5.50;2.50;;;;;;;3.39;100.00;98427.72;6297638;28;20099;-78
2024/02/09 08:16:07;;;;;;;4.90;2.45;;;;;;;3.41;100.00;98431.06;6291434;28;20055;-77
2024/02/09 08:19:09;;;;;;;7.40;3.38;;;;;;;3.43;100.00;98419.63;6297912;28;20041;-77
2024/02/09 08:22:12;;;;;;;7.55;3.30;;;;;;;3.45;100.00;98420.41;6281058;28;20111;-77
2024/02/09 08:25:14;;;;;;;3.78;2.25;;;;;;;3.40;100.00;98426.78;6265475;28;20056;-77
2024/02/09 08:28:15;;;;;;;8.23;3.05;;;;;;;3.30;100.00;98411.75;6275406;28;20045;-78
2024/02/09 08:31:18;;;;;;;6.10;3.17;;;;;;;3.43;100.00;98413.63;6275701;28;20060;-76
2024/02/09 08:34:20;;;;;;;4.95;2.67;;;;;;;3.49;100.00;98411.47;6275643;28;20445;-77
2024/02/09 08:37:24;;;;;;;6.53;3.42;;;;;;;3.50;100.00;98412.31;6275255;28;20064;-79
2024/02/09 08:40:26;;;;;;;6.10;3.22;;;;;;;3.54;100.00;98400.78;6275693;28;20048;-79
2024/02/09 08:43:27;;;;;;;5.65;3.60;;;;;;;3.57;100.00;98403.19;6250783;28;20127;-77
2024/02/09 08:46:29;;;;;;;5.13;2.85;;;;;;;3.59;100.00;98401.38;6263014;28;20049;-79
2024/02/09 08:49:30;;;;;;;9.55;4.50;;;;;;;3.67;100.00;98396.50;6274050;28;20048;-78
2024/02/09 08:52:33;;;;;;;7.20;3.60;;;;;;;3.80;100.00;98402.59;6273277;28;20044;-77
2024/02/09 08:55:34;;;;;;;8.82;4.10;;;;;;;3.86;100.00;98404.00;6275138;28;20049;-77
2024/02/09 08:58:36;;;;;;;7.82;3.95;;;;;;;3.89;100.00;98389.94;6275075;28;20041;-78
2024/02/09 09:01:37;;;;;;;7.32;3.70;;;;;;;3.86;100.00;98388.41;6275440;28;20052;-78
2024/02/09 09:04:38;;;;;;;7.15;3.55;;;;;;;3.84;100.00;98389.41;6275162;28;20048;-77
2024/02/09 09:07:41;;;;;;;9.13;4.10;;;;;;;3.94;100.00;98390.50;6274850;28;20046;-78
2024/02/09 09:10:43;;;;;;;7.28;3.63;;;;;;;3.92;100.00;98381.97;6274193;28;20075;-77
2024/02/09 09:13:44;;;;;;;7.03;4.18;;;;;;;3.99;100.00;98375.44;6275116;28;20374;-76
2024/02/09 09:16:45;;;;;;;6.72;3.70;;;;;;;4.04;100.00;98373.38;6274987;28;20045;-77
2024/02/09 09:19:47;;;;;;;8.50;4.07;;;;;;;4.10;100.00;98375.59;6274725;28;20049;-76
2024/02/09 09:22:50;;;;;;;8.63;4.45;;;;;;;4.05;100.00;98375.88;6275098;28;20064;-75
2024/02/09 09:25:51;;;;;;;8.88;4.45;;;;;;;4.11;100.00;98384.22;6274993;28;20092;-75
2024/02/09 09:28:53;;;;;;;10.65;5.15;;;;;;;4.21;100.00;98382.66;6274517;28;20045;-77
2024/02/09 09:31:54;;;;;;;13.57;4.65;;;;;;;4.18;100.00;98382.84;6275280;28;20079;-76
2024/02/09 09:34:56;;;;;;;9.98;4.40;;;;;;;4.30;100.00;98382.06;6275067;28;20045;-77
2024/02/09 09:37:58;;;;;;;6.55;4.00;;;;;;;4.30;100.00;98387.28;6274639;28;20433;-76
2024/02/09 09:41:00;;;;;;;7.95;3.72;;;;;;;4.30;100.00;98387.28;6278151;28;20044;-76
2024/02/09 09:44:01;;;;;;;8.25;4.07;;;;;;;4.42;100.00;98385.63;6283147;28;20052;-75
2024/02/09 09:47:06;;;;;;;9.35;4.60;;;;;;;4.44;100.00;98387.19;6287767;28;20051;-76
2024/02/09 09:50:11;;;;;;;11.32;5.28;;;;;;;4.46;100.00;98382.72;6284824;28;20044;-75
2024/02/09 09:53:15;;;;;;;10.73;4.45;;;;;;;4.45;100.00;98381.06;6275332;28;20053;-77
2024/02/09 09:56:17;;;;;;;10.55;4.55;;;;;;;4.47;100.00;98376.59;6274386;28;20088;-77
2024/02/09 09:59:18;;;;;;;9.50;5.00;;;;;;;4.58;100.00;98381.91;6274321;28;20052;-75
2024/02/09 10:02:20;;;;;;;11.30;5.25;;;;;;;4.67;100.00;98384.81;6274418;28;20052;-75
2024/02/09 10:05:22;;;;;;;14.35;5.18;;;;;;;4.74;100.00;98391.28;6274451;28;20483;-75
2024/02/09 10:08:28;;;;;;;11.23;5.25;;;;;;;4.84;100.00;98384.53;6273809;28;20056;-76
2024/02/09 10:11:32;;;;;;;11.40;5.25;;;;;;;4.86;100.00;98387.88;6274519;28;20053;-74
2024/02/09 10:14:33;;;;;;;9.40;4.68;;;;;;;4.91;100.00;98393.59;6274338;28;20504;-74
2024/02/09 10:17:39;;;;;;;9.45;4.97;;;;;;;4.94;100.00;98384.72;6274250;28;20157;-75
2024/02/09 10:20:41;;;;;;;11.52;5.45;;;;;;;4.90;100.00;98381.50;6274387;28;20441;-76
2024/02/09 10:23:46;;;;;;;11.65;5.35;;;;;;;4.92;100.00;98371.84;6275084;28;20464;-74
2024/02/09 10:26:49;;;;;;;10.85;4.85;;;;;;;5.01;100.00;98384.22;6274360;28;20174;-75
2024/02/09 10:29:51;;;;;;;10.60;5.07;;;;;;;5.02;100.00;98378.06;6278276;28;20049;-75
2024/02/09 10:32:53;;;;;;;10.27;5.07;;;;;;;5.06;100.00;98371.72;6278702;28;20049;-76
2024/02/09 10:35:55;;;;;;;11.38;5.65;;;;;;;5.12;100.00;98372.22;6278069;28;20056;-76
2024/02/09 10:38:58;;;;;;;11.48;5.78;;;;;;;5.12;100.00;98369.63;6277716;28;20045;-75
2024/02/09 10:42:02;;;;;;;13.25;5.85;;;;;;;5.16;100.00;98364.09;6278195;28;20056;-74
2024/02/09 10:45:08;;;;;;;10.60;5.13;;;;;;;5.24;100.00;98363.56;6278203;28;20056;-75
2024/02/09 10:48:14;;;;;;;10.70;5.38;;;;;;;5.27;100.00;98371.19;6277678;28;20052;-76
2024/02/09 10:51:18;;;;;;;10.73;5.75;;;;;;;5.35;100.00;98366.25;6278256;28;20218;-75
2024/02/09 10:54:26;;;;;;;13.63;5.45;;;;;;;5.37;100.00;98366.16;6277317;28;20330;-76
2024/02/09 10:57:27;;;;;;;11.05;5.57;;;;;;;5.41;100.00;98371.03;6252887;28;20384;-76
2024/02/09 11:00:32;;;;;;;13.77;5.00;;;;;;;5.52;100.00;98367.66;6252895;28;20045;-77
2024/02/09 11:03:33;;;;;;;15.80;6.45;;;;;;;5.60;100.00;98368.78;6253129;28;20050;-77
2024/02/09 11:06:36;;;;;;;13.48;6.88;;;;;;;5.83;100.00;98348.06;6272357;28;20049;-76
2024/02/09 11:09:39;;;;;;;13.60;6.47;;;;;;;6.05;100.00;98355.19;6276831;28;20041;-75
2024/02/09 11:12:40;;;;;;;15.27;6.70;;;;;;;6.23;100.00;98358.22;6293160;28;20049;-76
2024/02/09 11:15:42;;;;;;;13.50;7.20;;;;;;;6.28;100.00;98354.31;6280778;28;20052;-76
2024/02/09 11:18:44;;;;;;;16.83;6.80;;;;;;;6.29;100.00;98350.78;6277145;28;20041;-75
2024/02/09 11:21:47;;;;;;;13.27;6.30;;;;;;;6.28;100.00;98353.50;6274090;28;20445;-76
2024/02/09 11:24:51;;;;;;;12.00;6.15;;;;;;;6.32;100.00;98355.78;6277068;28;20134;-75
2024/02/09 11:27:53;;;;;;;17.50;8.50;;;;;;;6.34;100.00;98340.81;6276636;28;20071;-75
2024/02/09 11:30:56;;;;;;;14.15;6.40;;;;;;;6.49;100.00;98338.84;6276785;28;20355;-75
2024/02/09 11:33:57;;;;;;;16.75;7.75;;;;;;;6.58;100.00;98338.13;6276169;28;20053;-74
2024/02/09 11:37:00;;;;;;;13.60;6.38;;;;;;;6.54;100.00;98335.88;6264919;28;20361;-74
2024/02/09 11:40:04;;;;;;;16.00;7.03;;;;;;;6.55;100.00;98329.72;6273509;28;20052;-74
2024/02/09 11:43:05;;;;;;;15.88;6.50;;;;;;;6.67;100.00;98323.56;6274555;28;20106;-75
2024/02/09 11:46:08;;;;;;;15.07;6.50;;;;;;;6.81;100.00;98325.13;6276534;28;20049;-75
2024/02/09 11:49:11;;;;;;;16.45;6.60;;;;;;;6.92;100.00;98314.69;6276042;28;20344;-75
2024/02/09 11:52:12;;;;;;;12.18;5.90;;;;;;;7.03;100.00;98308.63;6273491;28;20386;-75
2024/02/09 11:55:15;;;;;;;11.85;6.28;;;;;;;7.24;100.00;98324.41;6275665;28;20048;-75
2024/02/09 11:58:16;;;;;;;14.65;6.22;;;;;;;7.43;100.00;98313.34;6276089;28;20049;-74
2024/02/09 12:01:20;;;;;;;14.32;6.85;;;;;;;7.57;100.00;98320.91;6276239;28;20053;-75
2024/02/09 12:04:21;;;;;;;13.88;6.53;;;;;;;7.78;100.00;98319.19;6276226;28;20197;-75
2024/02/09 12:07:23;;;;;;;15.70;7.60;;;;;;;7.84;100.00;98313.44;6275784;28;20056;-74
2024/02/09 12:10:26;;;;;;;15.48;6.50;;;;;;;7.93;100.00;98324.13;6275837;28;20045;-74
2024/02/09 12:13:28;;;;;;;14.55;6.72;;;;;;;7.93;100.00;98318.91;6275723;28;20048;-73
2024/02/09 12:16:30;;;;;;;13.60;6.25;;;;;;;7.97;100.00;98318.53;6275900;28;20429;-75
2024/02/09 12:19:32;;;;;;;13.15;6.15;;;;;;;8.05;100.00;98317.91;6275290;28;20440;-75
2024/02/09 12:22:34;;;;;;;10.05;5.15;;;;;;;8.04;100.00;98314.47;6275870;28;20056;-75
2024/02/09 12:25:37;;;;;;;9.80;5.07;;;;;;;8.09;100.00;98314.09;6275164;28;20488;-73
2024/02/09 12:28:39;;;;;;;7.82;4.00;;;;;;;8.20;100.00;98314.00;6274973;28;20056;-73
2024/02/09 12:31:43;;;;;;;11.07;4.88;;;;;;;8.23;100.00;98326.84;6275950;28;20049;-77
2024/02/09 12:34:46;;;;;;;7.00;4.15;;;;;;;8.35;100.00;98322.38;6275266;28;20056;-73
2024/02/09 12:37:51;;;;;;;12.90;4.97;;;;;;;8.44;100.00;98315.56;6275298;28;20052;-74
2024/02/09 12:40:57;;;;;;;11.98;4.50;;;;;;;8.54;100.00;98317.31;6275017;28;20467;-73
2024/02/09 12:44:00;;;;;;;7.20;4.32;;;;;;;8.65;100.00;98313.78;6271750;28;20147;-72
2024/02/09 12:47:03;;;;;;;9.25;4.45;;;;;;;8.72;100.00;98312.31;6249190;28;20087;-73
2024/02/09 12:50:04;;;;;;;10.82;3.80;;;;;;;8.76;100.00;98315.47;6250807;28;20073;-73
2024/02/09 12:53:06;;;;;;;13.15;4.47;;;;;;;8.76;100.00;98312.88;6250671;28;20139;-73
2024/02/09 12:56:11;;;;;;;10.07;4.30;;;;;;;8.77;100.00;98311.94;6250368;28;20342;-72
2024/02/09 12:59:12;;;;;;;7.32;4.18;;;;;;;8.78;100.00;98319.66;6249975;28;20056;-73
2024/02/09 13:02:15;;;;;;;10.45;4.72;;;;;;;8.81;100.00;98310.69;6250477;28;20045;-72
2024/02/09 13:05:17;;;;;;;8.40;3.75;;;;;;;8.80;100.00;98304.63;6256870;28;20159;-72
2024/02/09 13:08:21;;;;;;;10.68;4.40;;;;;;;8.84;100.00;98308.63;6274386;28;20082;-71
2024/02/09 13:11:24;;;;;;;9.68;4.35;;;;;;;8.88;100.00;98311.84;6274992;28;20455;-72
2024/02/09 13:14:26;;;;;;;8.57;4.22;;;;;;;8.93;100.00;98312.25;6274776;28;20506;-73
2024/02/09 13:17:27;;;;;;;6.07;3.50;;;;;;;9.02;100.00;98313.25;6274360;28;20048;-73
2024/02/09 13:20:28;;;;;;;9.65;4.57;;;;;;;9.11;100.00;98309.84;6274681;28;20429;-72
2024/02/09 13:23:30;;;;;;;10.85;4.40;;;;;;;9.11;100.00;98304.63;6273997;28;20049;-72
2024/02/09 13:26:33;;;;;;;7.65;4.20;;;;;;;9.14;100.00;98314.84;6274741;28;20052;-72
2024/02/09 13:29:35;;;;;;;8.10;4.00;;;;;;;9.17;100.00;98313.72;6274254;28;20045;-73
2024/02/09 13:32:37;;;;;;;11.13;4.20;;;;;;;9.19;100.00;98302.16;6274880;28;20068;-72
2024/02/09 13:35:40;;;;;;;8.45;4.10;;;;;;;9.18;100.00;98307.56;6274542;28;20357;-72
2024/02/09 13:38:42;;;;;;;9.05;3.60;;;;;;;9.21;100.00;98310.72;6274239;28;20352;-73
2024/02/09 13:41:44;;;;;;;6.75;4.22;;;;;;;9.32;100.00;98308.00;6274438;28;20145;-73
2024/02/09 13:44:46;;;;;;;6.85;3.25;;;;;;;9.40;100.00;98316.03;6264690;28;21979;-72
2024/02/09 13:47:49;;;;;;;9.63;4.22;;;;;;;9.47;100.00;98311.06;6268903;28;20429;-72
2024/02/09 13:50:50;;;;;;;7.05;3.55;;;;;;;9.51;100.00;98316.88;6282747;28;20052;-72
2024/02/09 13:53:52;;;;;;;6.07;3.85;;;;;;;9.49;100.00;98324.03;6286301;28;20055;-72
2024/02/09 13:56:55;;;;;;;10.32;3.45;;;;;;;9.44;100.00;98321.81;6289202;28;20052;-72
2024/02/09 13:59:57;;;;;;;5.68;3.58;;;;;;;9.45;100.00;98320.88;6281764;28;20452;-72
2024/02/09 14:02:58;;;;;;;5.45;3.42;;;;;;;9.44;100.00;98320.97;6280723;28;20048;-72
2024/02/09 14:05:59;;;;;;;7.35;4.05;;;;;;;9.58;100.00;98323.22;6288732;28;20040;-71
2024/02/09 14:09:01;;;;;;;14.32;4.47;;;;;;;9.64;100.00;98330.56;6288856;28;20048;-72
2024/02/09 14:12:04;;;;;;;5.93;3.45;;;;;;;9.63;100.00;98324.50;6336952;22;20044;-73
2024/02/09 14:15:08;;;;;;;7.18;3.65;;;;;;;9.65;100.00;98326.97;6317680;28;20055;-73
2024/02/09 14:18:09;;;;;;;6.65;3.88;;;;;;;9.69;100.00;98330.16;6318828;28;20459;-73
2024/02/09 14:21:12;;;;;;;7.43;3.28;;;;;;;9.65;100.00;98327.78;6322123;28;20045;-73
2024/02/09 14:24:13;;;;;;;8.38;3.78;;;;;;;9.59;100.00;98324.91;6292031;28;20049;-73
2024/02/09 14:27:16;;;;;;;8.10;3.78;;;;;;;9.58;100.00;98331.09;6309058;28;20041;-73
2024/02/09 14:30:20;;;;;;;10.13;4.95;;;;;;;9.60;100.00;98321.31;6312087;28;20627;-73
2024/02/09 14:33:21;;;;;;;10.20;3.50;;;;;;;9.63;100.00;98329.72;6311232;28;20055;-73
2024/02/09 14:36:23;;;;;;;5.70;3.40;;;;;;;9.73;100.00;98334.16;6304982;28;20060;-74
2024/02/09 14:39:24;;;;;;;11.70;3.83;;;;;;;9.80;100.00;98338.72;6308729;28;20045;-72
2024/02/09 14:42:28;;;;;;;8.25;3.45;;;;;;;9.83;100.00;98337.63;6300225;28;20071;-73
2024/02/09 14:45:34;;;;;;;6.82;3.20;;;;;;;9.86;100.00;98337.38;6313459;28;20048;-73
2024/02/09 14:48:36;;;;;;;7.07;3.17;;;;;;;9.91;100.00;98340.41;6306511;28;20052;-72
2024/02/09 14:51:38;;;;;;;4.07;2.28;;;;;;;9.99;100.00;98345.78;6312346;28;20070;-72
2024/02/09 14:54:40;;;;;;;3.40;2.00;;;;;;;10.07;100.00;98343.28;6307285;28;20101;-72
2024/02/09 14:57:44;;;;;;;5.10;2.22;;;;;;;10.16;100.00;98347.72;6303654;28;20190;-72
2024/02/09 15:00:45;;;;;;;3.47;2.15;;;;;;;10.30;100.00;98343.03;6302569;28;20045;-72
2024/02/09 15:03:47;;;;;;;3.50;1.80;;;;;;;10.32;100.00;98341.94;6299382;28;20045;-72
2024/02/09 15:06:49;;;;;;;5.75;1.73;;;;;;;10.35;100.00;98349.53;6287492;28;21579;-72
2024/02/09 15:09:51;;;;;;;9.68;2.20;;;;;;;10.36;100.00;98351.22;6285400;28;20048;-73
2024/02/09 15:12:54;;;;;;;4.32;2.10;;;;;;;10.38;100.00;98353.69;6282580;28;20060;-73
2024/02/09 15:15:55;;;;;;;4.32;2.45;;;;;;;10.32;100.00;98356.88;6287255;28;20049;-73
2024/02/09 15:18:56;;;;;;;3.70;2.15;;;;;;;10.37;100.00;98359.91;6287716;28;20059;-72
2024/02/09 15:21:58;;;;;;;3.45;1.85;;;;;;;10.32;100.00;98355.06;6287142;28;20047;-72
2024/02/09 15:25:00;;;;;;;11.15;2.65;;;;;;;10.34;100.00;98350.50;6288194;28;20052;-73
2024/02/09 15:28:02;;;;;;;5.13;2.00;;;;;;;10.31;100.00;98350.81;6310867;28;20135;-74
2024/02/09 15:31:05;;;;;;;4.20;2.13;;;;;;;10.21;100.00;98347.28;6314222;28;20044;-75
2024/02/09 15:34:06;;;;;;;6.72;1.90;;;;;;;10.15;100.00;98350.50;6319193;28;20048;-75
2024/02/09 15:37:08;;;;;;;3.63;1.98;;;;;;;10.08;100.00;98352.00;6303729;28;20055;-74
2024/02/09 15:40:11;;;;;;;6.72;2.38;;;;;;;10.07;100.00;98358.22;6302111;28;20143;-75
2024/02/09 15:43:14;;;;;;;3.35;1.95;;;;;;;10.08;100.00;98365.09;6302837;28;20127;-74
2024/02/09 15:46:16;;;;;;;4.32;2.03;;;;;;;10.10;100.00;98356.16;6309796;28;20059;-74
2024/02/09 15:49:17;;;;;;;10.75;2.47;;;;;;;10.03;100.00;98355.03;6301180;28;20641;-74
2024/02/09 15:52:19;;;;;;;6.15;2.33;;;;;;;10.04;100.00;98361.13;6301617;28;20075;-74
2024/02/09 15:55:20;;;;;;;3.67;2.25;;;;;;;9.99;100.00;98356.28;6309577;28;20040;-74
2024/02/09 15:58:24;;;;;;;5.47;2.40;;;;;;;9.96;100.00;98356.56;6304129;28;20056;-78
2024/02/09 16:01:31;;;;;;;4.07;1.80;;;;;;;9.89;100.00;98355.44;6305249;28;20047;-76
2024/02/09 16:04:32;;;;;;;8.07;1.83;;;;;;;9.85;100.00;98356.66;6313624;28;20090;-75